sensor_id;sensor_type;location;lat;lon;timestamp;pressure;altitude;pressure_sealevel;temperature;humidity
48862;BME280;34681;49.188;-0.374;2022-08-05T00:01:19;101507.75;;;20.89;53.22
48862;BME280;34681;49.188;-0.374;2022-08-05T00:03:46;101507.00;;;20.80;53.23
48862;BME280;34681;49.188;-0.374;2022-08-05T00:06:11;101509.59;;;20.82;53.32
48862;BME280;34681;49.188;-0.374;2022-08-05T00:08:37;101510.09;;;20.85;52.95
48862;BME280;34681;49.188;-0.374;2022-08-05T00:11:06;101507.41;;;20.77;53.78
48862;BME280;34681;49.188;-0.374;2022-08-05T00:13:36;101505.66;;;20.76;53.30
48862;BME280;34681;49.188;-0.374;2022-08-05T00:16:03;101512.69;;;20.72;53.70
48862;BME280;34681;49.188;-0.374;2022-08-05T00:18:29;101505.78;;;20.68;53.24
48862;BME280;34681;49.188;-0.374;2022-08-05T00:20:54;101511.22;;;20.76;53.17
48862;BME280;34681;49.188;-0.374;2022-08-05T00:23:21;101498.41;;;20.60;53.30
48862;BME280;34681;49.188;-0.374;2022-08-05T00:25:46;101505.88;;;20.60;53.58
48862;BME280;34681;49.188;-0.374;2022-08-05T00:28:12;101509.63;;;20.67;53.21
48862;BME280;34681;49.188;-0.374;2022-08-05T00:30:38;101513.38;;;20.59;53.50
48862;BME280;34681;49.188;-0.374;2022-08-05T00:33:03;101522.84;;;20.80;54.10
48862;BME280;34681;49.188;-0.374;2022-08-05T00:35:28;101516.72;;;20.69;53.43
48862;BME280;34681;49.188;-0.374;2022-08-05T00:37:54;101509.25;;;20.70;53.61
48862;BME280;34681;49.188;-0.374;2022-08-05T00:40:21;101517.81;;;20.90;53.42
48862;BME280;34681;49.188;-0.374;2022-08-05T00:42:46;101520.28;;;20.63;52.73
48862;BME280;34681;49.188;-0.374;2022-08-05T00:45:12;101515.78;;;20.47;52.92
48862;BME280;34681;49.188;-0.374;2022-08-05T00:47:37;101515.78;;;20.47;53.12
48862;BME280;34681;49.188;-0.374;2022-08-05T00:50:03;101516.53;;;20.41;53.06
48862;BME280;34681;49.188;-0.374;2022-08-05T00:52:28;101519.91;;;20.37;53.35
48862;BME280;34681;49.188;-0.374;2022-08-05T00:54:55;101526.00;;;20.32;53.29
48862;BME280;34681;49.188;-0.374;2022-08-05T00:57:20;101523.34;;;20.39;53.03
48862;BME280;34681;49.188;-0.374;2022-08-05T00:59:47;101528.31;;;20.29;53.49
48862;BME280;34681;49.188;-0.374;2022-08-05T01:02:12;101526.44;;;20.44;53.44
48862;BME280;34681;49.188;-0.374;2022-08-05T01:04:38;101527.44;;;20.43;53.88
48862;BME280;34681;49.188;-0.374;2022-08-05T01:07:03;101528.22;;;20.37;53.26
48862;BME280;34681;49.188;-0.374;2022-08-05T01:09:28;101534.94;;;20.28;53.08
48862;BME280;34681;49.188;-0.374;2022-08-05T01:11:58;101533.09;;;20.35;53.42
48862;BME280;34681;49.188;-0.374;2022-08-05T01:17:07;101538.19;;;20.31;54.17
48862;BME280;34681;49.188;-0.374;2022-08-05T01:23:10;101538.06;;;20.10;53.30
48862;BME280;34681;49.188;-0.374;2022-08-05T01:31:06;101544.59;;;20.17;54.90
48862;BME280;34681;49.188;-0.374;2022-08-05T01:33:40;101543.53;;;20.33;53.01
48862;BME280;34681;49.188;-0.374;2022-08-05T01:36:14;101539.81;;;20.26;54.58
48862;BME280;34681;49.188;-0.374;2022-08-05T01:38:42;101541.16;;;20.15;54.87
48862;BME280;34681;49.188;-0.374;2022-08-05T01:41:08;101536.34;;;20.24;53.98
48862;BME280;34681;49.188;-0.374;2022-08-05T01:43:36;101542.31;;;20.20;53.42
48862;BME280;34681;49.188;-0.374;2022-08-05T01:46:02;101538.66;;;20.35;53.80
48862;BME280;34681;49.188;-0.374;2022-08-05T01:48:28;101535.59;;;20.15;54.53
48862;BME280;34681;49.188;-0.374;2022-08-05T01:50:56;101543.09;;;20.29;53.77
48862;BME280;34681;49.188;-0.374;2022-08-05T01:53:23;101539.25;;;20.30;53.43
48862;BME280;34681;49.188;-0.374;2022-08-05T01:55:51;101543.16;;;20.06;53.74
48862;BME280;34681;49.188;-0.374;2022-08-05T01:58:18;101543.34;;;20.05;53.62
48862;BME280;34681;49.188;-0.374;2022-08-05T02:00:49;101546.28;;;19.88;54.72
48862;BME280;34681;49.188;-0.374;2022-08-05T02:05:43;101534.03;;;19.98;54.97
48862;BME280;34681;49.188;-0.374;2022-08-05T02:08:10;101531.25;;;19.98;54.56
48862;BME280;34681;49.188;-0.374;2022-08-05T02:10:41;101531.53;;;19.88;54.74
48862;BME280;34681;49.188;-0.374;2022-08-05T02:13:12;101530.25;;;19.76;55.17
48862;BME280;34681;49.188;-0.374;2022-08-05T02:18:44;101536.31;;;19.94;56.13
48862;BME280;34681;49.188;-0.374;2022-08-05T02:21:15;101533.38;;;19.96;55.09
48862;BME280;34681;49.188;-0.374;2022-08-05T02:23:43;101538.16;;;20.02;55.81
48862;BME280;34681;49.188;-0.374;2022-08-05T02:26:10;101537.59;;;20.06;55.02
48862;BME280;34681;49.188;-0.374;2022-08-05T02:28:40;101543.34;;;20.05;55.19
48862;BME280;34681;49.188;-0.374;2022-08-05T02:31:14;101534.59;;;19.93;55.09
48862;BME280;34681;49.188;-0.374;2022-08-05T02:33:47;101531.34;;;19.89;56.63
48862;BME280;34681;49.188;-0.374;2022-08-05T02:36:17;101540.16;;;19.78;55.93
48862;BME280;34681;49.188;-0.374;2022-08-05T02:38:48;101539.56;;;19.83;56.58
48862;BME280;34681;49.188;-0.374;2022-08-05T02:41:15;101540.69;;;19.74;56.78
48862;BME280;34681;49.188;-0.374;2022-08-05T02:43:42;101543.59;;;19.80;56.40
48862;BME280;34681;49.188;-0.374;2022-08-05T02:46:09;101536.66;;;19.76;56.25
48862;BME280;34681;49.188;-0.374;2022-08-05T02:48:38;101544.16;;;19.53;57.80
48862;BME280;34681;49.188;-0.374;2022-08-05T02:51:04;101544.75;;;19.86;57.29
48862;BME280;34681;49.188;-0.374;2022-08-05T02:53:30;101540.19;;;20.08;56.68
48862;BME280;34681;49.188;-0.374;2022-08-05T02:55:57;101549.47;;;20.00;55.81
48862;BME280;34681;49.188;-0.374;2022-08-05T02:58:23;101552.91;;;20.02;55.99
48862;BME280;34681;49.188;-0.374;2022-08-05T03:00:52;101553.50;;;19.98;56.21
48862;BME280;34681;49.188;-0.374;2022-08-05T03:03:19;101544.66;;;19.94;56.98
48862;BME280;34681;49.188;-0.374;2022-08-05T03:05:48;101552.03;;;19.87;57.30
48862;BME280;34681;49.188;-0.374;2022-08-05T03:08:15;101542.06;;;19.92;57.58
48862;BME280;34681;49.188;-0.374;2022-08-05T03:10:42;101543.44;;;19.97;56.81
48862;BME280;34681;49.188;-0.374;2022-08-05T03:13:12;101549.34;;;19.93;56.85
48862;BME280;34681;49.188;-0.374;2022-08-05T03:15:43;101538.41;;;19.77;56.49
48862;BME280;34681;49.188;-0.374;2022-08-05T03:18:09;101537.81;;;19.67;57.27
48862;BME280;34681;49.188;-0.374;2022-08-05T03:20:34;101539.63;;;19.52;57.50
48862;BME280;34681;49.188;-0.374;2022-08-05T03:23:00;101533.38;;;19.58;57.54
48862;BME280;34681;49.188;-0.374;2022-08-05T03:25:26;101542.69;;;19.65;57.45
48862;BME280;34681;49.188;-0.374;2022-08-05T03:27:54;101543.84;;;19.48;58.18
48862;BME280;34681;49.188;-0.374;2022-08-05T03:30:21;101538.94;;;19.58;59.29
48862;BME280;34681;49.188;-0.374;2022-08-05T03:32:47;101538.06;;;19.57;57.78
48862;BME280;34681;49.188;-0.374;2022-08-05T03:35:13;101540.31;;;19.54;59.05
48862;BME280;34681;49.188;-0.374;2022-08-05T03:37:39;101539.28;;;19.55;58.61
48862;BME280;34681;49.188;-0.374;2022-08-05T03:40:05;101533.91;;;19.53;59.02
48862;BME280;34681;49.188;-0.374;2022-08-05T03:42:33;101539.44;;;19.61;58.47
48862;BME280;34681;49.188;-0.374;2022-08-05T03:44:59;101533.00;;;19.61;58.32
48862;BME280;34681;49.188;-0.374;2022-08-05T03:47:24;101537.31;;;19.63;57.81
48862;BME280;34681;49.188;-0.374;2022-08-05T03:49:50;101538.84;;;19.43;58.33
48862;BME280;34681;49.188;-0.374;2022-08-05T03:52:23;101543.22;;;19.38;58.72
48862;BME280;34681;49.188;-0.374;2022-08-05T03:54:56;101538.47;;;19.23;59.80
48862;BME280;34681;49.188;-0.374;2022-08-05T03:57:25;101546.16;;;19.36;59.18
48862;BME280;34681;49.188;-0.374;2022-08-05T04:00:00;101549.72;;;19.53;58.93
48862;BME280;34681;49.188;-0.374;2022-08-05T04:02:29;101553.13;;;19.63;58.59
48862;BME280;34681;49.188;-0.374;2022-08-05T04:04:57;101547.97;;;19.52;58.29
48862;BME280;34681;49.188;-0.374;2022-08-05T04:07:23;101550.44;;;19.47;59.14
48862;BME280;34681;49.188;-0.374;2022-08-05T04:09:49;101543.41;;;19.59;58.94
48862;BME280;34681;49.188;-0.374;2022-08-05T04:12:14;101545.19;;;19.52;58.56
48862;BME280;34681;49.188;-0.374;2022-08-05T04:14:41;101545.56;;;19.26;58.54
48862;BME280;34681;49.188;-0.374;2022-08-05T04:17:07;101557.94;;;19.15;59.21
48862;BME280;34681;49.188;-0.374;2022-08-05T04:19:41;101562.06;;;19.19;59.08
48862;BME280;34681;49.188;-0.374;2022-08-05T04:22:06;101565.09;;;19.09;59.39
48862;BME280;34681;49.188;-0.374;2022-08-05T04:24:32;101558.84;;;19.07;59.19
48862;BME280;34681;49.188;-0.374;2022-08-05T04:26:57;101564.34;;;19.16;59.11
48862;BME280;34681;49.188;-0.374;2022-08-05T04:29:23;101572.16;;;19.20;59.08
48862;BME280;34681;49.188;-0.374;2022-08-05T04:31:48;101567.31;;;19.14;58.84
48862;BME280;34681;49.188;-0.374;2022-08-05T04:34:14;101568.94;;;19.31;58.86
48862;BME280;34681;49.188;-0.374;2022-08-05T04:36:39;101570.50;;;19.03;59.07
48862;BME280;34681;49.188;-0.374;2022-08-05T04:39:05;101570.00;;;18.99;59.84
48862;BME280;34681;49.188;-0.374;2022-08-05T04:41:30;101576.38;;;19.08;60.04
48862;BME280;34681;49.188;-0.374;2022-08-05T04:43:56;101577.09;;;19.02;60.50
48862;BME280;34681;49.188;-0.374;2022-08-05T04:46:21;101581.19;;;19.14;59.11
48862;BME280;34681;49.188;-0.374;2022-08-05T04:48:47;101571.63;;;19.17;59.28
48862;BME280;34681;49.188;-0.374;2022-08-05T04:51:12;101578.81;;;19.03;59.44
48862;BME280;34681;49.188;-0.374;2022-08-05T04:53:37;101583.03;;;18.91;59.60
48862;BME280;34681;49.188;-0.374;2022-08-05T04:56:04;101583.19;;;18.97;59.71
48862;BME280;34681;49.188;-0.374;2022-08-05T04:58:29;101583.03;;;18.91;59.73
48862;BME280;34681;49.188;-0.374;2022-08-05T05:00:55;101584.25;;;18.96;59.41
48862;BME280;34681;49.188;-0.374;2022-08-05T05:03:20;101588.31;;;19.08;58.95
48862;BME280;34681;49.188;-0.374;2022-08-05T05:05:45;101588.03;;;19.03;59.13
48862;BME280;34681;49.188;-0.374;2022-08-05T05:08:11;101599.28;;;19.02;59.07
48862;BME280;34681;49.188;-0.374;2022-08-05T05:10:40;101596.88;;;18.99;59.12
48862;BME280;34681;49.188;-0.374;2022-08-05T05:13:09;101604.00;;;18.93;59.25
48862;BME280;34681;49.188;-0.374;2022-08-05T05:15:35;101596.50;;;19.02;58.91
48862;BME280;34681;49.188;-0.374;2022-08-05T05:18:00;101606.06;;;18.99;59.07
48862;BME280;34681;49.188;-0.374;2022-08-05T05:20:26;101604.00;;;18.93;59.06
48862;BME280;34681;49.188;-0.374;2022-08-05T05:22:51;101611.75;;;19.06;59.06
48862;BME280;34681;49.188;-0.374;2022-08-05T05:25:16;101604.66;;;19.03;58.65
48862;BME280;34681;49.188;-0.374;2022-08-05T05:27:42;101610.59;;;18.92;59.17
48862;BME280;34681;49.188;-0.374;2022-08-05T05:30:08;101615.91;;;19.02;58.42
48862;BME280;34681;49.188;-0.374;2022-08-05T05:32:33;101627.19;;;19.00;58.13
48862;BME280;34681;49.188;-0.374;2022-08-05T05:34:58;101623.06;;;18.96;59.36
48862;BME280;34681;49.188;-0.374;2022-08-05T05:37:24;101633.94;;;19.06;59.17
48862;BME280;34681;49.188;-0.374;2022-08-05T05:39:49;101637.06;;;19.03;58.64
48862;BME280;34681;49.188;-0.374;2022-08-05T05:42:15;101638.09;;;19.02;58.53
48862;BME280;34681;49.188;-0.374;2022-08-05T05:44:40;101638.50;;;18.91;59.01
48862;BME280;34681;49.188;-0.374;2022-08-05T05:47:05;101649.34;;;19.08;58.42
48862;BME280;34681;49.188;-0.374;2022-08-05T05:49:31;101649.25;;;19.25;58.04
48862;BME280;34681;49.188;-0.374;2022-08-05T05:51:56;101660.16;;;19.26;57.91
48862;BME280;34681;49.188;-0.374;2022-08-05T05:54:22;101661.47;;;19.47;57.46
48862;BME280;34681;49.188;-0.374;2022-08-05T05:56:47;101661.00;;;19.66;56.58
48862;BME280;34681;49.188;-0.374;2022-08-05T05:59:13;101668.03;;;19.77;56.86
48862;BME280;34681;49.188;-0.374;2022-08-05T06:01:40;101674.09;;;20.03;56.44
48862;BME280;34681;49.188;-0.374;2022-08-05T06:04:10;101681.16;;;20.29;57.34
48862;BME280;34681;49.188;-0.374;2022-08-05T06:06:36;101686.72;;;20.81;54.96
48862;BME280;34681;49.188;-0.374;2022-08-05T06:09:03;101681.03;;;22.27;51.59
48862;BME280;34681;49.188;-0.374;2022-08-05T06:11:29;101697.88;;;24.91;46.04
48862;BME280;34681;49.188;-0.374;2022-08-05T06:13:55;101698.13;;;25.99;43.86
48862;BME280;34681;49.188;-0.374;2022-08-05T06:16:20;101705.44;;;27.07;41.61
48862;BME280;34681;49.188;-0.374;2022-08-05T06:18:46;101706.88;;;27.46;40.19
48862;BME280;34681;49.188;-0.374;2022-08-05T06:21:11;101706.78;;;25.91;42.38
48862;BME280;34681;49.188;-0.374;2022-08-05T06:23:36;101714.31;;;26.79;41.69
48862;BME280;34681;49.188;-0.374;2022-08-05T06:26:02;101726.00;;;28.04;39.13
48862;BME280;34681;49.188;-0.374;2022-08-05T06:28:27;101723.38;;;27.24;40.38
48862;BME280;34681;49.188;-0.374;2022-08-05T06:30:52;101734.19;;;26.21;42.33
48862;BME280;34681;49.188;-0.374;2022-08-05T06:33:17;101740.63;;;25.32;43.62
48862;BME280;34681;49.188;-0.374;2022-08-05T06:35:43;101740.53;;;24.54;45.74
48862;BME280;34681;49.188;-0.374;2022-08-05T06:38:08;101740.44;;;24.07;46.58
48862;BME280;34681;49.188;-0.374;2022-08-05T06:40:33;101733.13;;;24.00;46.36
48862;BME280;34681;49.188;-0.374;2022-08-05T06:42:59;101735.09;;;24.26;45.99
48862;BME280;34681;49.188;-0.374;2022-08-05T06:45:24;101740.03;;;24.10;46.53
48862;BME280;34681;49.188;-0.374;2022-08-05T06:47:49;101750.78;;;23.52;47.16
48862;BME280;34681;49.188;-0.374;2022-08-05T06:50:15;101751.31;;;23.00;48.33
48862;BME280;34681;49.188;-0.374;2022-08-05T06:52:40;101749.38;;;22.94;48.63
48862;BME280;34681;49.188;-0.374;2022-08-05T06:55:06;101750.88;;;22.96;48.67
48862;BME280;34681;49.188;-0.374;2022-08-05T06:57:31;101758.19;;;22.97;49.50
48862;BME280;34681;49.188;-0.374;2022-08-05T06:59:57;101756.91;;;23.35;48.09
48862;BME280;34681;49.188;-0.374;2022-08-05T07:02:22;101767.06;;;23.49;47.79
48862;BME280;34681;49.188;-0.374;2022-08-05T07:04:48;101768.50;;;24.60;44.86
48862;BME280;34681;49.188;-0.374;2022-08-05T07:07:13;101765.56;;;26.43;40.95
48862;BME280;34681;49.188;-0.374;2022-08-05T07:09:38;101759.31;;;26.09;41.57
48862;BME280;34681;49.188;-0.374;2022-08-05T07:12:04;101771.50;;;25.18;42.58
48862;BME280;34681;49.188;-0.374;2022-08-05T07:14:29;101773.44;;;24.98;43.56
48862;BME280;34681;49.188;-0.374;2022-08-05T07:17:13;101778.81;;;26.60;40.26
48862;BME280;34681;49.188;-0.374;2022-08-05T07:19:39;101787.56;;;26.96;39.34
48862;BME280;34681;49.188;-0.374;2022-08-05T07:22:04;101787.00;;;26.62;40.49
48862;BME280;34681;49.188;-0.374;2022-08-05T07:24:30;101794.06;;;25.37;43.02
48862;BME280;34681;49.188;-0.374;2022-08-05T07:26:55;101791.72;;;24.48;44.56
48862;BME280;34681;49.188;-0.374;2022-08-05T07:29:20;101798.16;;;23.74;45.78
48862;BME280;34681;49.188;-0.374;2022-08-05T07:31:46;101799.66;;;23.35;47.14
48862;BME280;34681;49.188;-0.374;2022-08-05T07:34:11;101818.31;;;23.63;46.50
48862;BME280;34681;49.188;-0.374;2022-08-05T07:36:36;101811.66;;;23.29;47.05
48862;BME280;34681;49.188;-0.374;2022-08-05T07:39:06;101809.94;;;23.28;48.18
48862;BME280;34681;49.188;-0.374;2022-08-05T07:41:32;101824.03;;;22.92;47.79
48862;BME280;34681;49.188;-0.374;2022-08-05T07:43:58;101827.69;;;22.71;48.26
48862;BME280;34681;49.188;-0.374;2022-08-05T07:46:25;101821.72;;;22.95;47.93
48862;BME280;34681;49.188;-0.374;2022-08-05T07:48:55;101832.28;;;23.63;46.89
48862;BME280;34681;49.188;-0.374;2022-08-05T07:51:21;101840.41;;;24.86;43.85
48862;BME280;34681;49.188;-0.374;2022-08-05T07:53:46;101851.38;;;27.13;40.38
48862;BME280;34681;49.188;-0.374;2022-08-05T07:56:12;101841.38;;;27.67;38.87
48862;BME280;34681;49.188;-0.374;2022-08-05T07:58:37;101849.56;;;27.26;39.54
48862;BME280;34681;49.188;-0.374;2022-08-05T08:01:03;101847.94;;;27.36;39.25
48862;BME280;34681;49.188;-0.374;2022-08-05T08:03:28;101861.38;;;28.44;37.65
48862;BME280;34681;49.188;-0.374;2022-08-05T08:05:54;101865.16;;;29.33;36.37
48862;BME280;34681;49.188;-0.374;2022-08-05T08:08:19;101870.66;;;29.05;36.03
48862;BME280;34681;49.188;-0.374;2022-08-05T08:10:44;101874.59;;;28.74;36.80
48862;BME280;34681;49.188;-0.374;2022-08-05T08:13:10;101866.16;;;27.52;38.76
48862;BME280;34681;49.188;-0.374;2022-08-05T08:15:35;101871.75;;;27.09;39.64
48862;BME280;34681;49.188;-0.374;2022-08-05T08:18:01;101885.22;;;26.24;41.33
48862;BME280;34681;49.188;-0.374;2022-08-05T08:20:27;101893.44;;;26.64;40.36
48862;BME280;34681;49.188;-0.374;2022-08-05T08:22:57;101893.41;;;26.25;40.73
48862;BME280;34681;49.188;-0.374;2022-08-05T08:25:29;101884.56;;;25.57;42.38
48862;BME280;34681;49.188;-0.374;2022-08-05T08:27:55;101886.38;;;26.54;41.36
48862;BME280;34681;49.188;-0.374;2022-08-05T08:30:20;101893.06;;;26.02;41.35
48862;BME280;34681;49.188;-0.374;2022-08-05T08:32:46;101892.44;;;24.48;44.32
48862;BME280;34681;49.188;-0.374;2022-08-05T08:35:11;101906.63;;;23.92;45.88
48862;BME280;34681;49.188;-0.374;2022-08-05T08:37:37;101900.69;;;23.45;47.66
48862;BME280;34681;49.188;-0.374;2022-08-05T08:40:03;101891.69;;;23.50;47.59
48862;BME280;34681;49.188;-0.374;2022-08-05T08:42:29;101902.50;;;23.32;47.59
48862;BME280;34681;49.188;-0.374;2022-08-05T08:44:56;101915.09;;;23.21;47.97
48862;BME280;34681;49.188;-0.374;2022-08-05T08:47:25;101905.25;;;23.25;47.45
48862;BME280;34681;49.188;-0.374;2022-08-05T08:49:55;101912.00;;;22.88;48.13
48862;BME280;34681;49.188;-0.374;2022-08-05T08:52:28;101929.22;;;22.55;48.69
48862;BME280;34681;49.188;-0.374;2022-08-05T08:54:54;101927.53;;;23.74;47.22
48862;BME280;34681;49.188;-0.374;2022-08-05T08:57:20;101916.84;;;25.86;42.97
48862;BME280;34681;49.188;-0.374;2022-08-05T08:59:46;101946.16;;;26.55;40.54
48862;BME280;34681;49.188;-0.374;2022-08-05T09:02:12;101943.13;;;26.95;40.27
48862;BME280;34681;49.188;-0.374;2022-08-05T09:04:38;101943.00;;;26.83;39.26
48862;BME280;34681;49.188;-0.374;2022-08-05T09:07:05;101941.72;;;26.27;40.45
48862;BME280;34681;49.188;-0.374;2022-08-05T09:09:34;101942.13;;;26.31;40.33
48862;BME280;34681;49.188;-0.374;2022-08-05T09:12:04;101945.13;;;25.32;42.07
48862;BME280;34681;49.188;-0.374;2022-08-05T09:14:31;101942.72;;;25.02;43.38
48862;BME280;34681;49.188;-0.374;2022-08-05T09:16:58;101943.63;;;24.35;43.52
48862;BME280;34681;49.188;-0.374;2022-08-05T09:19:24;101939.88;;;24.28;42.25
48862;BME280;34681;49.188;-0.374;2022-08-05T09:21:49;101946.28;;;24.63;42.01
48862;BME280;34681;49.188;-0.374;2022-08-05T09:24:15;101946.72;;;24.73;42.21
48862;BME280;34681;49.188;-0.374;2022-08-05T09:26:41;101945.06;;;24.85;42.52
48862;BME280;34681;49.188;-0.374;2022-08-05T09:29:10;101951.25;;;24.68;40.79
48862;BME280;34681;49.188;-0.374;2022-08-05T09:31:36;101956.06;;;24.32;41.97
48862;BME280;34681;49.188;-0.374;2022-08-05T09:34:04;101954.69;;;24.22;42.76
48862;BME280;34681;49.188;-0.374;2022-08-05T09:36:47;101965.91;;;24.76;42.40
48862;BME280;34681;49.188;-0.374;2022-08-05T09:39:15;101950.41;;;24.74;41.35
48862;BME280;34681;49.188;-0.374;2022-08-05T09:41:59;101959.25;;;24.90;40.59
48862;BME280;34681;49.188;-0.374;2022-08-05T09:44:34;101962.88;;;24.71;41.35
48862;BME280;34681;49.188;-0.374;2022-08-05T09:47:20;101980.03;;;25.09;40.78
48862;BME280;34681;49.188;-0.374;2022-08-05T09:49:53;101969.38;;;24.78;40.85
48862;BME280;34681;49.188;-0.374;2022-08-05T09:52:27;101980.56;;;24.30;41.25
48862;BME280;34681;49.188;-0.374;2022-08-05T10:00:00;101971.22;;;23.26;43.18
48862;BME280;34681;49.188;-0.374;2022-08-05T10:02:37;101987.84;;;23.41;42.40
48862;BME280;34681;49.188;-0.374;2022-08-05T10:05:05;101997.00;;;22.85;44.17
48862;BME280;34681;49.188;-0.374;2022-08-05T10:07:50;101988.75;;;22.84;44.94
48862;BME280;34681;49.188;-0.374;2022-08-05T10:10:22;101987.44;;;22.94;45.61
48862;BME280;34681;49.188;-0.374;2022-08-05T10:12:52;101990.34;;;23.08;43.81
48862;BME280;34681;49.188;-0.374;2022-08-05T10:15:25;102008.78;;;23.02;44.11
48862;BME280;34681;49.188;-0.374;2022-08-05T10:20:29;101984.28;;;22.17;45.41
48862;BME280;34681;49.188;-0.374;2022-08-05T10:22:55;101998.13;;;22.40;46.03
48862;BME280;34681;49.188;-0.374;2022-08-05T10:25:21;102004.06;;;21.93;44.11
48862;BME280;34681;49.188;-0.374;2022-08-05T10:27:47;102005.47;;;22.11;45.01
48862;BME280;34681;49.188;-0.374;2022-08-05T10:30:13;102002.72;;;21.88;45.44
48862;BME280;34681;49.188;-0.374;2022-08-05T10:32:38;102004.03;;;21.63;45.54
48862;BME280;34681;49.188;-0.374;2022-08-05T10:35:04;101999.44;;;22.00;44.80
48862;BME280;34681;49.188;-0.374;2022-08-05T10:37:30;102012.56;;;22.14;45.31
48862;BME280;34681;49.188;-0.374;2022-08-05T10:40:00;102009.38;;;22.02;43.46
48862;BME280;34681;49.188;-0.374;2022-08-05T10:42:31;102020.81;;;22.07;45.31
48862;BME280;34681;49.188;-0.374;2022-08-05T10:45:02;102022.84;;;22.13;43.61
48862;BME280;34681;49.188;-0.374;2022-08-05T10:47:32;102017.53;;;22.04;43.82
48862;BME280;34681;49.188;-0.374;2022-08-05T10:50:07;102013.94;;;21.80;44.20
48862;BME280;34681;49.188;-0.374;2022-08-05T10:52:45;102026.78;;;22.19;44.09
48862;BME280;34681;49.188;-0.374;2022-08-05T10:55:25;102028.63;;;22.27;41.79
48862;BME280;34681;49.188;-0.374;2022-08-05T10:58:10;102034.66;;;22.30;41.86
48862;BME280;34681;49.188;-0.374;2022-08-05T11:00:36;102030.63;;;22.33;41.96
48862;BME280;34681;49.188;-0.374;2022-08-05T11:05:30;102036.94;;;22.41;42.10
48862;BME280;34681;49.188;-0.374;2022-08-05T11:08:05;102050.72;;;22.28;40.17
48862;BME280;34681;49.188;-0.374;2022-08-05T11:10:34;102048.56;;;21.86;40.40
48862;BME280;34681;49.188;-0.374;2022-08-05T11:13:05;102059.41;;;21.96;41.34
48862;BME280;34681;49.188;-0.374;2022-08-05T11:15:36;102047.50;;;22.02;40.73
48862;BME280;34681;49.188;-0.374;2022-08-05T11:18:28;102050.56;;;22.07;42.39
48862;BME280;34681;49.188;-0.374;2022-08-05T11:20:55;102063.78;;;21.75;41.70
48862;BME280;34681;49.188;-0.374;2022-08-05T11:28:42;102048.81;;;21.91;43.85
48862;BME280;34681;49.188;-0.374;2022-08-05T11:36:13;102056.97;;;22.15;43.08
48862;BME280;34681;49.188;-0.374;2022-08-05T11:44:03;102068.19;;;22.07;43.78
48862;BME280;34681;49.188;-0.374;2022-08-05T11:48:58;102072.28;;;21.97;42.22
48862;BME280;34681;49.188;-0.374;2022-08-05T11:51:25;102071.28;;;22.12;41.98
48862;BME280;34681;49.188;-0.374;2022-08-05T11:53:51;102074.66;;;22.23;42.29
48862;BME280;34681;49.188;-0.374;2022-08-05T11:56:16;102089.44;;;22.23;41.39
48862;BME280;34681;49.188;-0.374;2022-08-05T11:58:44;102081.38;;;22.13;42.11
48862;BME280;34681;49.188;-0.374;2022-08-05T12:03:50;102085.25;;;22.27;44.02
48862;BME280;34681;49.188;-0.374;2022-08-05T12:06:18;102091.97;;;22.48;42.71
48862;BME280;34681;49.188;-0.374;2022-08-05T12:08:57;102090.53;;;22.37;43.09
48862;BME280;34681;49.188;-0.374;2022-08-05T12:13:57;102091.47;;;22.14;43.09
48862;BME280;34681;49.188;-0.374;2022-08-05T12:16:28;102097.53;;;22.33;43.24
48862;BME280;34681;49.188;-0.374;2022-08-05T12:18:55;102097.38;;;22.34;43.17
48862;BME280;34681;49.188;-0.374;2022-08-05T12:21:27;102113.47;;;22.24;39.31
48862;BME280;34681;49.188;-0.374;2022-08-05T12:24:10;102093.59;;;22.12;40.44
48862;BME280;34681;49.188;-0.374;2022-08-05T12:26:41;102107.78;;;22.18;40.33
48862;BME280;34681;49.188;-0.374;2022-08-05T12:31:38;102111.56;;;22.10;40.56
48862;BME280;34681;49.188;-0.374;2022-08-05T12:34:05;102109.91;;;22.15;40.20
48862;BME280;34681;49.188;-0.374;2022-08-05T12:36:33;102104.56;;;22.29;38.59
48862;BME280;34681;49.188;-0.374;2022-08-05T12:38:58;102108.78;;;22.10;41.78
48862;BME280;34681;49.188;-0.374;2022-08-05T12:41:30;102112.84;;;22.37;40.97
48862;BME280;34681;49.188;-0.374;2022-08-05T12:43:59;102124.66;;;22.39;37.44
48862;BME280;34681;49.188;-0.374;2022-08-05T12:46:27;102126.19;;;22.41;38.08
48862;BME280;34681;49.188;-0.374;2022-08-05T12:49:07;102129.81;;;22.12;38.54
48862;BME280;34681;49.188;-0.374;2022-08-05T12:51:50;102130.88;;;22.11;39.20
48862;BME280;34681;49.188;-0.374;2022-08-05T12:54:26;102120.09;;;22.08;41.60
48862;BME280;34681;49.188;-0.374;2022-08-05T12:56:57;102140.41;;;22.32;39.75
48862;BME280;34681;49.188;-0.374;2022-08-05T12:59:25;102133.22;;;22.37;40.90
48862;BME280;34681;49.188;-0.374;2022-08-05T13:02:05;102142.56;;;22.45;39.02
48862;BME280;34681;49.188;-0.374;2022-08-05T13:04:33;102142.47;;;22.53;39.54
48862;BME280;34681;49.188;-0.374;2022-08-05T13:07:02;102131.50;;;22.51;39.32
48862;BME280;34681;49.188;-0.374;2022-08-05T13:09:29;102144.16;;;22.24;38.32
48862;BME280;34681;49.188;-0.374;2022-08-05T13:12:01;102135.00;;;22.15;38.49
48862;BME280;34681;49.188;-0.374;2022-08-05T13:14:33;102134.16;;;22.30;38.05
48862;BME280;34681;49.188;-0.374;2022-08-05T13:16:59;102135.50;;;22.19;40.48
48862;BME280;34681;49.188;-0.374;2022-08-05T13:19:26;102139.34;;;22.33;40.00
48862;BME280;34681;49.188;-0.374;2022-08-05T13:21:53;102143.63;;;22.43;39.80
48862;BME280;34681;49.188;-0.374;2022-08-05T13:24:21;102143.91;;;22.63;39.42
48862;BME280;34681;49.188;-0.374;2022-08-05T13:26:49;102144.84;;;22.70;39.25
48862;BME280;34681;49.188;-0.374;2022-08-05T13:29:15;102148.78;;;22.32;38.88
48862;BME280;34681;49.188;-0.374;2022-08-05T13:31:41;102142.94;;;22.04;39.07
48862;BME280;34681;49.188;-0.374;2022-08-05T13:34:08;102149.38;;;22.04;39.75
48862;BME280;34681;49.188;-0.374;2022-08-05T13:36:33;102143.59;;;22.29;39.82